Time,TemperatureF,DewpointF,PressureIn,WindDirection,WindDirectionDegrees,WindSpeedMPH,WindSpeedGustMPH,Humidity,HourlyPrecipIn,Conditions,Clouds,dailyrainin,SoftwareType,DateUTC
2013-10-10 00:12:00,53.6,53.3,29.96,ESE,112,0.0,-999.0,99,-99.99,,,0.00,Acu-Link.com,2013-10-10 04:12:00,
2013-10-10 00:27:00,52.9,52.6,29.95,ESE,112,0.0,-999.0,99,-99.99,,,0.00,Acu-Link.com,2013-10-10 04:27:00,
2013-10-10 00:42:00,52.7,52.4,29.95,ESE,112,0.0,-999.0,99,-99.99,,,0.00,Acu-Link.com,2013-10-10 04:42:00,
2013-10-10 00:57:00,52.3,52.0,29.94,ESE,112,0.0,-999.0,99,-99.99,,,0.00,Acu-Link.com,2013-10-10 04:57:00,
2013-10-10 01:13:00,52.2,51.9,29.94,ESE,112,0.0,-999.0,99,-99.99,,,0.00,Acu-Link.com,2013-10-10 05:13:00,
2013-10-10 01:28:00,51.8,51.5,29.94,ESE,112,0.0,-999.0,99,-99.99,,,0.00,Acu-Link.com,2013-10-10 05:28:00,
2013-10-10 01:43:00,51.4,51.1,29.94,ESE,112,0.0,-999.0,99,-99.99,,,0.00,Acu-Link.com,2013-10-10 05:43:00,
2013-10-10 01:59:00,51.4,51.1,29.94,ESE,112,0.0,-999.0,99,-99.99,,,0.00,Acu-Link.com,2013-10-10 05:59:00,
2013-10-10 02:14:00,51.1,50.8,29.94,ESE,112,0.0,-999.0,99,-99.99,,,0.00,Acu-Link.com,2013-10-10 06:14:00,
2013-10-10 02:30:00,50.7,50.4,29.94,ESE,112,0.0,-999.0,99,-99.99,,,0.00,Acu-Link.com,2013-10-10 06:30:00,
2013-10-10 02:45:00,50.7,50.4,29.94,East,90,0.0,-999.0,99,-99.99,,,0.00,Acu-Link.com,2013-10-10 06:45:00,
2013-10-10 03:00:00,50.5,50.2,29.94,ESE,112,0.0,-999.0,99,-99.99,,,0.00,Acu-Link.com,2013-10-10 07:00:00,
2013-10-10 03:15:00,50.5,50.2,29.94,SE,135,0.0,-999.0,99,-99.99,,,0.00,Acu-Link.com,2013-10-10 07:15:00,
2013-10-10 03:30:00,50.0,49.7,29.94,ESE,112,0.0,-999.0,99,-99.99,,,0.00,Acu-Link.com,2013-10-10 07:30:00,
2013-10-10 03:45:00,50.0,49.7,29.93,ESE,112,0.0,-999.0,99,-99.99,,,0.00,Acu-Link.com,2013-10-10 07:45:00,
2013-10-10 04:00:00,49.8,49.5,29.94,ESE,112,0.0,-999.0,99,-99.99,,,0.00,Acu-Link.com,2013-10-10 08:00:00,
2013-10-10 04:15:00,49.8,49.5,29.93,ESE,112,0.0,-999.0,99,-99.99,,,0.00,Acu-Link.com,2013-10-10 08:15:00,
2013-10-10 04:32:00,49.6,49.3,29.93,ESE,112,0.0,-999.0,99,-99.99,,,0.00,Acu-Link.com,2013-10-10 08:32:00,
2013-10-10 04:47:00,49.5,49.2,29.94,ESE,112,0.0,-999.0,99,-99.99,,,0.00,Acu-Link.com,2013-10-10 08:47:00,
2013-10-10 05:02:00,49.5,49.2,29.94,ESE,112,0.0,-999.0,99,-99.99,,,0.00,Acu-Link.com,2013-10-10 09:02:00,
2013-10-10 05:17:00,49.3,49.0,29.94,ESE,112,0.0,-999.0,99,-99.99,,,0.00,Acu-Link.com,2013-10-10 09:17:00,
2013-10-10 05:32:00,49.3,49.0,29.95,WNW,292,0.0,-999.0,99,-99.99,,,0.00,Acu-Link.com,2013-10-10 09:32:00,
2013-10-10 05:48:00,49.6,49.3,29.95,WNW,292,0.0,-999.0,99,-99.99,,,0.00,Acu-Link.com,2013-10-10 09:48:00,
2013-10-10 06:03:00,49.3,49.0,29.95,ESE,112,0.0,-999.0,99,-99.99,,,0.00,Acu-Link.com,2013-10-10 10:03:00,
2013-10-10 06:18:00,48.9,48.6,29.95,ESE,112,0.0,-999.0,99,-99.99,,,0.00,Acu-Link.com,2013-10-10 10:18:00,
2013-10-10 06:33:00,48.4,48.1,29.97,East,90,0.0,-999.0,99,-99.99,,,0.00,Acu-Link.com,2013-10-10 10:33:00,
2013-10-10 06:48:00,48.2,47.9,29.97,East,90,0.0,-999.0,99,-99.99,,,0.00,Acu-Link.com,2013-10-10 10:48:00,
2013-10-10 07:03:00,48.7,48.4,29.97,ESE,112,0.0,-999.0,99,-99.99,,,0.00,Acu-Link.com,2013-10-10 11:03:00,
2013-10-10 07:19:00,48.9,48.6,29.97,WSW,247,0.0,-999.0,99,-99.99,,,0.00,Acu-Link.com,2013-10-10 11:19:00,
2013-10-10 07:34:00,48.7,48.4,29.97,ESE,112,0.0,-999.0,99,-99.99,,,0.00,Acu-Link.com,2013-10-10 11:34:00,
2013-10-10 07:49:00,48.4,48.1,29.97,West,270,0.0,-999.0,99,-99.99,,,0.00,Acu-Link.com,2013-10-10 11:49:00,
2013-10-10 08:04:00,48.7,48.4,29.97,SE,135,0.0,-999.0,99,-99.99,,,0.00,Acu-Link.com,2013-10-10 12:04:00,
2013-10-10 08:19:00,49.1,48.8,29.97,NE,45,0.0,-999.0,99,-99.99,,,0.00,Acu-Link.com,2013-10-10 12:19:00,
2013-10-10 08:34:00,50.0,49.7,29.98,WNW,292,0.0,-999.0,99,-99.99,,,0.00,Acu-Link.com,2013-10-10 12:34:00,
2013-10-10 08:49:00,52.0,51.7,29.98,East,90,0.0,-999.0,99,-99.99,,,0.00,Acu-Link.com,2013-10-10 12:49:00,
2013-10-10 09:04:00,53.1,52.8,29.99,ENE,67,1.7,-999.0,99,-99.99,,,0.00,Acu-Link.com,2013-10-10 13:04:00,
2013-10-10 09:19:00,54.0,53.7,29.99,NW,315,0.0,-999.0,99,-99.99,,,0.00,Acu-Link.com,2013-10-10 13:19:00,
2013-10-10 09:35:00,55.6,55.3,29.99,West,270,0.0,-999.0,99,-99.99,,,0.00,Acu-Link.com,2013-10-10 13:35:00,
2013-10-10 09:50:00,57.7,57.4,29.99,WNW,292,0.0,-999.0,99,-99.99,,,0.00,Acu-Link.com,2013-10-10 13:50:00,
2013-10-10 10:05:00,59.5,59.2,29.99,ESE,112,0.0,-999.0,99,-99.99,,,0.00,Acu-Link.com,2013-10-10 14:05:00,
2013-10-10 10:20:00,59.9,59.3,29.99,ESE,112,0.0,-999.0,98,-99.99,,,0.00,Acu-Link.com,2013-10-10 14:20:00,
2013-10-10 10:35:00,62.2,61.0,29.98,ESE,112,0.0,-999.0,96,-99.99,,,0.00,Acu-Link.com,2013-10-10 14:35:00,
2013-10-10 10:50:00,64.6,61.6,29.98,SW,225,0.0,-999.0,90,-99.99,,,0.00,Acu-Link.com,2013-10-10 14:50:00,
2013-10-10 11:06:00,67.8,62.1,29.98,SSE,157,1.7,-999.0,82,-99.99,,,0.00,Acu-Link.com,2013-10-10 15:06:00,
2013-10-10 11:21:00,68.5,62.8,29.98,WNW,292,3.2,-999.0,82,-99.99,,,0.00,Acu-Link.com,2013-10-10 15:21:00,
2013-10-10 11:36:00,69.8,61.9,29.98,NNE,22,3.7,-999.0,76,-99.99,,,0.00,Acu-Link.com,2013-10-10 15:36:00,
2013-10-10 11:51:00,70.5,61.8,29.97,ESE,112,2.7,-999.0,74,-99.99,,,0.00,Acu-Link.com,2013-10-10 15:51:00,
2013-10-10 12:06:00,72.0,62.5,29.97,NW,315,3.2,-999.0,72,-99.99,,,0.00,Acu-Link.com,2013-10-10 16:06:00,
2013-10-10 12:21:00,73.4,62.6,29.97,WNW,292,3.2,-999.0,69,-99.99,,,0.00,Acu-Link.com,2013-10-10 16:21:00,
2013-10-10 12:36:00,73.8,61.7,29.96,NW,315,4.2,-999.0,66,-99.99,,,0.00,Acu-Link.com,2013-10-10 16:36:00,
2013-10-10 12:51:00,74.8,62.2,29.96,NW,315,1.1,-999.0,65,-99.99,,,0.00,Acu-Link.com,2013-10-10 16:51:00,
2013-10-10 13:06:00,75.4,61.9,29.95,WNW,292,4.7,-999.0,63,-99.99,,,0.00,Acu-Link.com,2013-10-10 17:06:00,
2013-10-10 13:22:00,75.4,61.9,29.95,NE,45,2.7,-999.0,63,-99.99,,,0.00,Acu-Link.com,2013-10-10 17:22:00,
2013-10-10 13:37:00,76.6,60.7,29.93,West,270,4.2,-999.0,58,-99.99,,,0.00,Acu-Link.com,2013-10-10 17:37:00,
2013-10-10 13:52:00,78.4,60.9,29.93,NNW,337,3.7,-999.0,55,-99.99,,,0.00,Acu-Link.com,2013-10-10 17:52:00,
2013-10-10 14:07:00,76.5,61.1,29.92,NE,45,3.2,-999.0,59,-99.99,,,0.00,Acu-Link.com,2013-10-10 18:07:00,
2013-10-10 14:22:00,78.3,60.8,29.91,West,270,3.7,-999.0,55,-99.99,,,0.00,Acu-Link.com,2013-10-10 18:22:00,
2013-10-10 14:37:00,78.6,60.5,29.91,NW,315,7.8,-999.0,54,-99.99,,,0.00,Acu-Link.com,2013-10-10 18:37:00,
2013-10-10 14:52:00,78.3,60.3,29.91,NW,315,1.1,-999.0,54,-99.99,,,0.00,Acu-Link.com,2013-10-10 18:52:00,
2013-10-10 15:07:00,77.0,61.6,29.90,NW,315,5.3,-999.0,59,-99.99,,,0.00,Acu-Link.com,2013-10-10 19:07:00,
2013-10-10 15:22:00,77.0,61.1,29.90,ESE,112,1.7,-999.0,58,-99.99,,,0.00,Acu-Link.com,2013-10-10 19:22:00,
2013-10-10 15:38:00,79.2,61.1,29.90,NE,45,6.3,-999.0,54,-99.99,,,0.00,Acu-Link.com,2013-10-10 19:38:00,
2013-10-10 15:53:00,76.8,61.4,29.90,WNW,292,2.2,-999.0,59,-99.99,,,0.00,Acu-Link.com,2013-10-10 19:53:00,
2013-10-10 16:08:00,77.9,60.9,29.89,WNW,292,5.3,-999.0,56,-99.99,,,0.00,Acu-Link.com,2013-10-10 20:08:00,
2013-10-10 16:23:00,76.6,61.2,29.89,East,90,4.2,-999.0,59,-99.99,,,0.00,Acu-Link.com,2013-10-10 20:23:00,
2013-10-10 16:38:00,78.1,61.6,29.88,West,270,2.7,-999.0,57,-99.99,,,0.00,Acu-Link.com,2013-10-10 20:38:00,
2013-10-10 16:53:00,77.9,60.9,29.88,ENE,67,0.0,-999.0,56,-99.99,,,0.00,Acu-Link.com,2013-10-10 20:53:00,
2013-10-10 17:08:00,76.1,61.2,29.88,East,90,4.2,-999.0,60,-99.99,,,0.00,Acu-Link.com,2013-10-10 21:08:00,
2013-10-10 17:24:00,77.9,59.9,29.87,NE,45,3.2,-999.0,54,-99.99,,,0.00,Acu-Link.com,2013-10-10 21:24:00,
2013-10-10 17:39:00,75.9,59.6,29.87,NNW,337,3.2,-999.0,57,-99.99,,,0.00,Acu-Link.com,2013-10-10 21:39:00,
2013-10-10 17:54:00,74.8,60.0,29.88,NE,45,2.2,-999.0,60,-99.99,,,0.00,Acu-Link.com,2013-10-10 21:54:00,
2013-10-10 18:09:00,73.8,60.4,29.87,East,90,0.0,-999.0,63,-99.99,,,0.00,Acu-Link.com,2013-10-10 22:09:00,
2013-10-10 18:24:00,72.5,60.9,29.88,NE,45,0.0,-999.0,67,-99.99,,,0.00,Acu-Link.com,2013-10-10 22:24:00,
2013-10-10 18:39:00,70.5,62.2,29.87,East,90,0.0,-999.0,75,-99.99,,,0.00,Acu-Link.com,2013-10-10 22:39:00,
2013-10-10 18:54:00,68.2,61.4,29.87,East,90,0.0,-999.0,79,-99.99,,,0.00,Acu-Link.com,2013-10-10 22:54:00,
2013-10-10 19:09:00,65.7,61.1,29.87,East,90,0.0,-999.0,85,-99.99,,,0.00,Acu-Link.com,2013-10-10 23:09:00,
2013-10-10 19:24:00,63.7,61.0,29.87,East,90,0.0,-999.0,91,-99.99,,,0.00,Acu-Link.com,2013-10-10 23:24:00,
2013-10-10 19:40:00,62.1,60.4,29.87,East,90,0.0,-999.0,94,-99.99,,,0.00,Acu-Link.com,2013-10-10 23:40:00,
2013-10-10 19:55:00,60.6,59.5,29.87,WSW,247,0.0,-999.0,96,-99.99,,,0.00,Acu-Link.com,2013-10-10 23:55:00,
2013-10-10 20:10:00,59.7,59.4,29.87,East,90,0.0,-999.0,99,-99.99,,,0.00,Acu-Link.com,2013-10-11 00:10:00,
2013-10-10 20:25:00,58.5,58.2,29.87,East,90,0.0,-999.0,99,-99.99,,,0.00,Acu-Link.com,2013-10-11 00:25:00,
2013-10-10 20:40:00,57.6,57.3,29.87,East,90,0.0,-999.0,99,-99.99,,,0.00,Acu-Link.com,2013-10-11 00:40:00,
2013-10-10 21:10:00,56.1,55.8,29.88,ESE,112,0.0,-999.0,99,-99.99,,,0.00,Acu-Link.com,2013-10-11 01:10:00,
2013-10-10 21:25:00,55.4,55.1,29.88,ESE,112,0.0,-999.0,99,-99.99,,,0.00,Acu-Link.com,2013-10-11 01:25:00,
2013-10-10 21:40:00,55.0,54.7,29.88,East,90,0.0,-999.0,99,-99.99,,,0.00,Acu-Link.com,2013-10-11 01:40:00,
2013-10-10 21:56:00,54.5,54.2,29.88,NE,45,0.0,-999.0,99,-99.99,,,0.00,Acu-Link.com,2013-10-11 01:56:00,
2013-10-10 22:11:00,54.0,53.7,29.88,NNE,22,0.0,-999.0,99,-99.99,,,0.00,Acu-Link.com,2013-10-11 02:11:00,
2013-10-10 22:26:00,54.0,53.7,29.88,East,90,0.0,-999.0,99,-99.99,,,0.00,Acu-Link.com,2013-10-11 02:26:00,
2013-10-10 22:41:00,53.6,53.3,29.88,NE,45,0.0,-999.0,99,-99.99,,,0.00,Acu-Link.com,2013-10-11 02:41:00,
2013-10-10 22:56:00,53.2,52.9,29.87,ESE,112,0.0,-999.0,99,-99.99,,,0.00,Acu-Link.com,2013-10-11 02:56:00,
2013-10-10 23:11:00,52.9,52.6,29.88,SE,135,0.0,-999.0,99,-99.99,,,0.00,Acu-Link.com,2013-10-11 03:11:00,
2013-10-10 23:26:00,52.3,52.0,29.87,SSE,157,0.0,-999.0,99,-99.99,,,0.00,Acu-Link.com,2013-10-11 03:26:00,
2013-10-10 23:41:00,52.3,52.0,29.87,East,90,0.0,-999.0,99,-99.99,,,0.00,Acu-Link.com,2013-10-11 03:41:00,
2013-10-10 23:56:00,51.8,51.5,29.87,SE,135,0.0,-999.0,99,-99.99,,,0.00,Acu-Link.com,2013-10-11 03:56:00,